Mooyabil, Australia

12:18 PM AEST on April 28, 2017 (GMT +1000)
Mullumbimby | | Change Station

Elev 56 ft 28.55 °S, 153.50 °E | Updated 2 seconds ago

Partly Cloudy
Partly Cloudy
68.7 °F
Feels Like 68.7 °F
N
1.8
Wind Variable Wind from WNW
Gusts 2.5 mph

Today
High -- | Low -- °F
--% Chance of Precip.
Yesterday
High -- | Low -- °F
Precip. -- in
Pressure 29.95 in
Visibility 6.2 miles
Clouds
Dew Point 62 °F
Humidity 79%
Rainfall 0.00 in
Snow Depth Not available.
6:11 AM 5:15 PM
Waxing Crescent, 4% visible
SPECI YBCG 280214Z AUTO 18018G28KT 9999 // NCD 22/12 Q1014 RF00.0/000.0
Pressure 29.95 in
Visibility 6.2 miles
Clouds
Dew Point 62 °F
Humidity 79%
Rainfall 0.00 in
Snow Depth Not available.
6:11 AM 5:15 PM
Waxing Crescent, 4% visible
SPECI YBCG 280214Z AUTO 18018G28KT 9999 // NCD 22/12 Q1014 RF00.0/000.0

Get Severe Weather Alerts

Thanks for signing up!

Be on the lookout for a verification email in your inbox.

You'll start receiving the daily forecast at 8 AM.

×

10-Day Weather Forecast

×

Almanac

Astronomy

Apr. 28, 2017 Rise Set
Actual Time
Civil Twilight
Nautical Twilight
Astronomical Twilight
Moon
Length of Visible Light
Length of Day
Tomorrow will be .
, % of the Moon is Illuminated

Today's Extremes

Country Highs Country Lows

Community

WunderPhotos

WunderBlog® & News

Nearby

Air Quality

  Air Quality AQ Index Pollutant
Not available.

Snow Depth

Station Depth Elevation

Earthquake Activity

City Distance Mag. Time & Date
Minimum magnitude displayed is 2.5.

Coastal Water Temperatures

Place Temperature

Stations

Nearby Weather Stations

Station Location Temp. Windchill Dew Point Humidity Wind Precip. Elev Updated Type